General Aviation Weather

Text Reports

Enter one or more of the following location identifiers separated by a space:

Zip Code, Four-Character ICAO or Three-Character IATA airport codes.

METAR - Aviation Routine Weather Report
KCTJ - Carrollton, Georgia
Updated at 7:55 PM GMT on January 30, 2015 (2:55 PM EST):
METAR KCTJ 301955Z AUTO 31007G16KT 290V360 10SM CLR 09/M04 A3031 RMK AO2
TAF - Terminal Area Forecast
KCTJ - Carrollton, Georgia
Updated at 7:55 PM GMT on January 30, 2015 (2:55 PM EST):
No TAF is currently available for this location.
Decoded:
No decoded TAF is available.
PIREP - Pilot Weather Report
KCTJ - Carrollton, Georgia
Updated at 7:55 PM GMT on January 30, 2015 (2:55 PM EST):
No PIREP is currently available for this location.
AIRMET - Airmens Meteorological Information
KCTJ - Carrollton, Georgia
Updated at 7:55 PM GMT on January 30, 2015 (2:55 PM EST):
No AIRMET is currently available for this location.
SIGMET - Significant Meteorological Information
KCTJ - Carrollton, Georgia
Updated at 7:55 PM GMT on January 30, 2015 (2:55 PM EST):
No SIGMET is currently available for this location.
NOTAM - Notice to Airmen
KCTJ - Carrollton, Georgia
Updated at 7:55 PM GMT on January 30, 2015 (2:55 PM EST):
No NOTAM is currently available for this location.
Forecast Area
KCTJ - Carrollton, Georgia
Updated at 7:55 PM GMT on January 30, 2015 (2:55 PM EST):
No NOTAM is currently available for this location.
Aviation Weather Maps